sensor_id;sensor_type;location;lat;lon;timestamp;P1;durP1;ratioP1;P2;durP2;ratioP2
34982;SDS011;21187;50.976;13.720;2023-11-19T00:04:37;17.63;;;8.00;;
34982;SDS011;21187;50.976;13.720;2023-11-19T00:09:42;16.75;;;7.60;;
34982;SDS011;21187;50.976;13.720;2023-11-19T00:14:45;14.25;;;6.93;;
34982;SDS011;21187;50.976;13.720;2023-11-19T00:19:46;12.75;;;6.38;;
34982;SDS011;21187;50.976;13.720;2023-11-19T00:24:48;13.43;;;6.70;;
34982;SDS011;21187;50.976;13.720;2023-11-19T00:29:51;10.70;;;6.03;;
34982;SDS011;21187;50.976;13.720;2023-11-19T00:34:53;10.40;;;5.68;;
34982;SDS011;21187;50.976;13.720;2023-11-19T00:39:55;9.15;;;5.43;;
34982;SDS011;21187;50.976;13.720;2023-11-19T00:44:57;11.25;;;5.30;;
34982;SDS011;21187;50.976;13.720;2023-11-19T00:50:03;8.75;;;4.55;;
34982;SDS011;21187;50.976;13.720;2023-11-19T00:55:06;7.47;;;4.32;;
34982;SDS011;21187;50.976;13.720;2023-11-19T01:00:09;7.93;;;3.95;;
34982;SDS011;21187;50.976;13.720;2023-11-19T01:05:22;7.05;;;3.97;;
34982;SDS011;21187;50.976;13.720;2023-11-19T01:10:25;9.02;;;4.30;;
34982;SDS011;21187;50.976;13.720;2023-11-19T01:15:27;7.80;;;3.83;;
34982;SDS011;21187;50.976;13.720;2023-11-19T01:20:29;7.22;;;3.50;;
34982;SDS011;21187;50.976;13.720;2023-11-19T01:25:31;5.15;;;3.72;;
34982;SDS011;21187;50.976;13.720;2023-11-19T01:30:33;8.10;;;3.78;;
34982;SDS011;21187;50.976;13.720;2023-11-19T01:35:34;6.72;;;2.75;;
34982;SDS011;21187;50.976;13.720;2023-11-19T01:40:36;4.53;;;2.53;;
34982;SDS011;21187;50.976;13.720;2023-11-19T01:45:38;5.35;;;2.30;;
34982;SDS011;21187;50.976;13.720;2023-11-19T01:50:41;3.42;;;2.20;;
34982;SDS011;21187;50.976;13.720;2023-11-19T01:55:43;2.72;;;1.75;;
34982;SDS011;21187;50.976;13.720;2023-11-19T02:00:45;2.38;;;1.20;;
34982;SDS011;21187;50.976;13.720;2023-11-19T02:05:48;2.58;;;1.42;;
34982;SDS011;21187;50.976;13.720;2023-11-19T02:10:52;2.90;;;1.67;;
34982;SDS011;21187;50.976;13.720;2023-11-19T02:15:58;2.97;;;2.05;;
34982;SDS011;21187;50.976;13.720;2023-11-19T02:21:01;3.38;;;1.73;;
34982;SDS011;21187;50.976;13.720;2023-11-19T02:26:05;3.78;;;2.15;;
34982;SDS011;21187;50.976;13.720;2023-11-19T02:31:11;4.50;;;2.40;;
34982;SDS011;21187;50.976;13.720;2023-11-19T02:36:13;3.20;;;2.15;;
34982;SDS011;21187;50.976;13.720;2023-11-19T02:41:15;3.83;;;2.20;;
34982;SDS011;21187;50.976;13.720;2023-11-19T02:46:17;3.13;;;1.80;;
34982;SDS011;21187;50.976;13.720;2023-11-19T02:51:21;3.05;;;1.80;;
34982;SDS011;21187;50.976;13.720;2023-11-19T02:56:23;2.28;;;1.63;;
34982;SDS011;21187;50.976;13.720;2023-11-19T03:01:28;2.10;;;1.55;;
34982;SDS011;21187;50.976;13.720;2023-11-19T03:06:35;3.08;;;1.63;;
34982;SDS011;21187;50.976;13.720;2023-11-19T03:11:37;2.10;;;1.60;;
34982;SDS011;21187;50.976;13.720;2023-11-19T03:16:39;5.32;;;1.30;;
34982;SDS011;21187;50.976;13.720;2023-11-19T03:21:41;2.00;;;1.30;;
34982;SDS011;21187;50.976;13.720;2023-11-19T03:26:47;3.88;;;1.75;;
34982;SDS011;21187;50.976;13.720;2023-11-19T03:31:52;1.23;;;1.08;;
34982;SDS011;21187;50.976;13.720;2023-11-19T03:36:53;3.50;;;1.08;;
34982;SDS011;21187;50.976;13.720;2023-11-19T03:41:55;2.15;;;1.33;;
34982;SDS011;21187;50.976;13.720;2023-11-19T03:46:57;1.95;;;1.33;;
34982;SDS011;21187;50.976;13.720;2023-11-19T03:51:59;3.75;;;1.48;;
34982;SDS011;21187;50.976;13.720;2023-11-19T03:57:01;2.72;;;1.23;;
34982;SDS011;21187;50.976;13.720;2023-11-19T04:02:05;1.63;;;1.23;;
34982;SDS011;21187;50.976;13.720;2023-11-19T04:07:07;2.50;;;1.30;;
34982;SDS011;21187;50.976;13.720;2023-11-19T04:12:09;2.13;;;1.30;;
34982;SDS011;21187;50.976;13.720;2023-11-19T04:17:12;1.23;;;1.05;;
34982;SDS011;21187;50.976;13.720;2023-11-19T04:22:14;1.77;;;1.23;;
34982;SDS011;21187;50.976;13.720;2023-11-19T04:27:16;2.28;;;1.58;;
34982;SDS011;21187;50.976;13.720;2023-11-19T04:32:17;1.98;;;1.30;;
34982;SDS011;21187;50.976;13.720;2023-11-19T04:37:20;2.03;;;1.15;;
34982;SDS011;21187;50.976;13.720;2023-11-19T04:42:22;1.80;;;1.40;;
34982;SDS011;21187;50.976;13.720;2023-11-19T04:47:24;2.30;;;1.60;;
34982;SDS011;21187;50.976;13.720;2023-11-19T04:52:26;3.00;;;2.42;;
34982;SDS011;21187;50.976;13.720;2023-11-19T04:57:28;4.20;;;1.50;;
34982;SDS011;21187;50.976;13.720;2023-11-19T05:02:30;3.03;;;1.90;;
34982;SDS011;21187;50.976;13.720;2023-11-19T05:07:32;3.50;;;2.05;;
34982;SDS011;21187;50.976;13.720;2023-11-19T05:12:34;3.00;;;1.52;;
34982;SDS011;21187;50.976;13.720;2023-11-19T05:17:36;2.92;;;1.70;;
34982;SDS011;21187;50.976;13.720;2023-11-19T05:22:39;2.50;;;1.80;;
34982;SDS011;21187;50.976;13.720;2023-11-19T05:27:42;3.92;;;1.77;;
34982;SDS011;21187;50.976;13.720;2023-11-19T05:32:44;3.55;;;1.85;;
34982;SDS011;21187;50.976;13.720;2023-11-19T05:37:46;4.28;;;2.17;;
34982;SDS011;21187;50.976;13.720;2023-11-19T05:42:48;2.83;;;1.52;;
34982;SDS011;21187;50.976;13.720;2023-11-19T05:47:49;2.30;;;1.55;;
34982;SDS011;21187;50.976;13.720;2023-11-19T05:52:53;2.05;;;1.40;;
34982;SDS011;21187;50.976;13.720;2023-11-19T05:57:55;1.42;;;1.20;;
34982;SDS011;21187;50.976;13.720;2023-11-19T06:02:57;0.75;;;0.70;;
34982;SDS011;21187;50.976;13.720;2023-11-19T06:07:59;1.23;;;0.90;;
34982;SDS011;21187;50.976;13.720;2023-11-19T06:13:01;1.08;;;0.60;;
34982;SDS011;21187;50.976;13.720;2023-11-19T06:18:06;0.52;;;0.50;;
34982;SDS011;21187;50.976;13.720;2023-11-19T06:23:08;0.40;;;0.40;;
34982;SDS011;21187;50.976;13.720;2023-11-19T06:28:10;0.52;;;0.30;;
34982;SDS011;21187;50.976;13.720;2023-11-19T06:33:12;0.32;;;0.30;;
34982;SDS011;21187;50.976;13.720;2023-11-19T06:38:14;0.60;;;0.32;;
34982;SDS011;21187;50.976;13.720;2023-11-19T06:43:16;0.68;;;0.40;;
34982;SDS011;21187;50.976;13.720;2023-11-19T06:48:19;0.47;;;0.40;;
34982;SDS011;21187;50.976;13.720;2023-11-19T06:53:21;0.32;;;0.30;;
34982;SDS011;21187;50.976;13.720;2023-11-19T06:58:23;0.80;;;0.50;;
34982;SDS011;21187;50.976;13.720;2023-11-19T07:03:25;0.75;;;0.40;;
34982;SDS011;21187;50.976;13.720;2023-11-19T07:08:27;1.10;;;0.60;;
34982;SDS011;21187;50.976;13.720;2023-11-19T07:13:29;2.65;;;0.60;;
34982;SDS011;21187;50.976;13.720;2023-11-19T07:18:31;0.50;;;0.50;;
34982;SDS011;21187;50.976;13.720;2023-11-19T07:23:33;0.70;;;0.57;;
34982;SDS011;21187;50.976;13.720;2023-11-19T07:28:35;0.50;;;0.50;;
34982;SDS011;21187;50.976;13.720;2023-11-19T07:33:38;1.05;;;0.93;;
34982;SDS011;21187;50.976;13.720;2023-11-19T07:38:41;1.33;;;0.70;;
34982;SDS011;21187;50.976;13.720;2023-11-19T07:43:43;0.30;;;0.30;;
34982;SDS011;21187;50.976;13.720;2023-11-19T07:48:45;0.30;;;0.30;;
34982;SDS011;21187;50.976;13.720;2023-11-19T07:53:50;0.75;;;0.40;;
34982;SDS011;21187;50.976;13.720;2023-11-19T07:58:52;0.30;;;0.30;;
34982;SDS011;21187;50.976;13.720;2023-11-19T08:03:54;2.72;;;0.38;;
34982;SDS011;21187;50.976;13.720;2023-11-19T08:08:59;0.40;;;0.40;;
34982;SDS011;21187;50.976;13.720;2023-11-19T08:14:01;2.78;;;0.50;;
34982;SDS011;21187;50.976;13.720;2023-11-19T08:19:03;0.52;;;0.35;;
34982;SDS011;21187;50.976;13.720;2023-11-19T08:24:05;3.63;;;0.50;;
34982;SDS011;21187;50.976;13.720;2023-11-19T08:29:07;1.00;;;0.47;;
34982;SDS011;21187;50.976;13.720;2023-11-19T08:34:09;0.50;;;0.43;;
34982;SDS011;21187;50.976;13.720;2023-11-19T08:39:10;1.42;;;0.50;;
34982;SDS011;21187;50.976;13.720;2023-11-19T08:44:12;4.13;;;0.45;;
34982;SDS011;21187;50.976;13.720;2023-11-19T08:49:15;4.28;;;0.85;;
34982;SDS011;21187;50.976;13.720;2023-11-19T08:54:17;1.20;;;0.63;;
34982;SDS011;21187;50.976;13.720;2023-11-19T08:59:19;2.65;;;0.65;;
34982;SDS011;21187;50.976;13.720;2023-11-19T09:04:21;4.88;;;0.60;;
34982;SDS011;21187;50.976;13.720;2023-11-19T09:09:24;1.38;;;0.63;;
34982;SDS011;21187;50.976;13.720;2023-11-19T09:14:26;0.90;;;0.60;;
34982;SDS011;21187;50.976;13.720;2023-11-19T09:19:28;2.40;;;0.90;;
34982;SDS011;21187;50.976;13.720;2023-11-19T09:24:33;1.23;;;0.70;;
34982;SDS011;21187;50.976;13.720;2023-11-19T09:29:35;4.72;;;0.70;;
34982;SDS011;21187;50.976;13.720;2023-11-19T09:34:37;4.53;;;0.90;;
34982;SDS011;21187;50.976;13.720;2023-11-19T09:39:39;9.05;;;1.58;;
34982;SDS011;21187;50.976;13.720;2023-11-19T09:44:44;3.22;;;0.73;;
34982;SDS011;21187;50.976;13.720;2023-11-19T09:49:48;3.40;;;0.85;;
34982;SDS011;21187;50.976;13.720;2023-11-19T09:54:51;1.85;;;0.50;;
34982;SDS011;21187;50.976;13.720;2023-11-19T09:59:53;3.03;;;0.88;;
34982;SDS011;21187;50.976;13.720;2023-11-19T10:04:56;3.75;;;1.05;;
34982;SDS011;21187;50.976;13.720;2023-11-19T10:10:00;5.80;;;1.00;;
34982;SDS011;21187;50.976;13.720;2023-11-19T10:15:03;3.75;;;1.35;;
34982;SDS011;21187;50.976;13.720;2023-11-19T10:20:08;2.58;;;1.00;;
34982;SDS011;21187;50.976;13.720;2023-11-19T10:25:24;2.65;;;0.68;;
34982;SDS011;21187;50.976;13.720;2023-11-19T10:30:28;2.13;;;0.80;;
34982;SDS011;21187;50.976;13.720;2023-11-19T10:35:31;4.57;;;0.73;;
34982;SDS011;21187;50.976;13.720;2023-11-19T10:40:39;2.65;;;0.70;;
34982;SDS011;21187;50.976;13.720;2023-11-19T10:45:42;4.35;;;0.65;;
34982;SDS011;21187;50.976;13.720;2023-11-19T10:50:44;1.23;;;0.73;;
34982;SDS011;21187;50.976;13.720;2023-11-19T10:55:47;2.40;;;0.68;;
34982;SDS011;21187;50.976;13.720;2023-11-19T11:00:54;2.60;;;0.70;;
34982;SDS011;21187;50.976;13.720;2023-11-19T11:06:00;1.40;;;0.45;;
34982;SDS011;21187;50.976;13.720;2023-11-19T11:11:06;3.72;;;0.75;;
34982;SDS011;21187;50.976;13.720;2023-11-19T11:16:09;1.30;;;0.50;;
34982;SDS011;21187;50.976;13.720;2023-11-19T11:21:14;1.58;;;0.60;;
34982;SDS011;21187;50.976;13.720;2023-11-19T11:37:13;1.08;;;0.60;;
34982;SDS011;21187;50.976;13.720;2023-11-19T11:47:23;8.05;;;1.20;;
34982;SDS011;21187;50.976;13.720;2023-11-19T11:52:25;4.03;;;1.35;;
34982;SDS011;21187;50.976;13.720;2023-11-19T11:57:28;3.80;;;1.10;;
34982;SDS011;21187;50.976;13.720;2023-11-19T12:02:38;10.43;;;1.85;;
34982;SDS011;21187;50.976;13.720;2023-11-19T12:07:39;8.00;;;2.00;;
34982;SDS011;21187;50.976;13.720;2023-11-19T12:12:41;4.88;;;1.25;;
34982;SDS011;21187;50.976;13.720;2023-11-19T12:17:46;13.57;;;1.95;;
34982;SDS011;21187;50.976;13.720;2023-11-19T12:22:53;2.93;;;1.30;;
34982;SDS011;21187;50.976;13.720;2023-11-19T12:27:56;6.78;;;1.30;;
34982;SDS011;21187;50.976;13.720;2023-11-19T12:32:58;7.45;;;1.30;;
34982;SDS011;21187;50.976;13.720;2023-11-19T12:38:00;7.15;;;1.40;;
34982;SDS011;21187;50.976;13.720;2023-11-19T12:43:02;6.18;;;1.30;;
34982;SDS011;21187;50.976;13.720;2023-11-19T12:48:05;7.90;;;1.80;;
34982;SDS011;21187;50.976;13.720;2023-11-19T12:53:08;5.65;;;1.40;;
34982;SDS011;21187;50.976;13.720;2023-11-19T12:58:27;9.93;;;1.75;;
34982;SDS011;21187;50.976;13.720;2023-11-19T13:03:32;6.75;;;1.60;;
34982;SDS011;21187;50.976;13.720;2023-11-19T13:08:45;8.05;;;1.35;;
34982;SDS011;21187;50.976;13.720;2023-11-19T13:13:54;11.65;;;1.83;;
34982;SDS011;21187;50.976;13.720;2023-11-19T13:18:58;11.88;;;2.00;;
34982;SDS011;21187;50.976;13.720;2023-11-19T13:24:02;9.02;;;1.63;;
34982;SDS011;21187;50.976;13.720;2023-11-19T13:29:04;7.25;;;1.70;;
34982;SDS011;21187;50.976;13.720;2023-11-19T13:34:06;5.55;;;1.35;;
34982;SDS011;21187;50.976;13.720;2023-11-19T13:39:10;11.63;;;1.65;;
34982;SDS011;21187;50.976;13.720;2023-11-19T13:44:14;18.77;;;2.25;;
34982;SDS011;21187;50.976;13.720;2023-11-19T13:49:16;12.77;;;2.50;;
34982;SDS011;21187;50.976;13.720;2023-11-19T13:54:18;12.18;;;1.95;;
34982;SDS011;21187;50.976;13.720;2023-11-19T13:59:22;10.70;;;1.75;;
34982;SDS011;21187;50.976;13.720;2023-11-19T14:04:24;18.58;;;4.38;;
34982;SDS011;21187;50.976;13.720;2023-11-19T14:09:27;15.85;;;2.05;;
34982;SDS011;21187;50.976;13.720;2023-11-19T14:14:31;13.40;;;1.95;;
34982;SDS011;21187;50.976;13.720;2023-11-19T14:19:33;12.65;;;1.65;;
34982;SDS011;21187;50.976;13.720;2023-11-19T14:24:35;9.20;;;1.48;;
34982;SDS011;21187;50.976;13.720;2023-11-19T14:29:38;14.73;;;2.60;;
34982;SDS011;21187;50.976;13.720;2023-11-19T14:34:42;14.02;;;2.13;;
34982;SDS011;21187;50.976;13.720;2023-11-19T14:39:45;10.32;;;2.45;;
34982;SDS011;21187;50.976;13.720;2023-11-19T14:44:50;15.93;;;1.88;;
34982;SDS011;21187;50.976;13.720;2023-11-19T14:49:55;19.55;;;2.03;;
34982;SDS011;21187;50.976;13.720;2023-11-19T14:54:57;13.50;;;2.63;;
34982;SDS011;21187;50.976;13.720;2023-11-19T14:59:58;19.67;;;4.75;;
34982;SDS011;21187;50.976;13.720;2023-11-19T15:05:00;17.38;;;2.60;;
34982;SDS011;21187;50.976;13.720;2023-11-19T15:10:02;17.98;;;1.88;;
34982;SDS011;21187;50.976;13.720;2023-11-19T15:15:08;13.18;;;2.83;;
34982;SDS011;21187;50.976;13.720;2023-11-19T15:20:35;14.82;;;3.15;;
34982;SDS011;21187;50.976;13.720;2023-11-19T15:25:37;17.13;;;2.72;;
34982;SDS011;21187;50.976;13.720;2023-11-19T15:30:39;11.98;;;2.05;;
34982;SDS011;21187;50.976;13.720;2023-11-19T15:35:41;15.40;;;2.50;;
34982;SDS011;21187;50.976;13.720;2023-11-19T15:40:43;9.85;;;2.28;;
34982;SDS011;21187;50.976;13.720;2023-11-19T15:45:45;23.52;;;4.72;;
34982;SDS011;21187;50.976;13.720;2023-11-19T15:50:48;15.30;;;2.05;;
34982;SDS011;21187;50.976;13.720;2023-11-19T15:55:50;18.33;;;2.75;;
34982;SDS011;21187;50.976;13.720;2023-11-19T16:00:54;16.60;;;2.08;;
34982;SDS011;21187;50.976;13.720;2023-11-19T16:05:57;18.98;;;2.38;;
34982;SDS011;21187;50.976;13.720;2023-11-19T16:11:10;10.80;;;2.05;;
34982;SDS011;21187;50.976;13.720;2023-11-19T16:16:15;6.50;;;1.98;;
34982;SDS011;21187;50.976;13.720;2023-11-19T16:21:17;10.52;;;2.00;;
34982;SDS011;21187;50.976;13.720;2023-11-19T16:26:19;11.32;;;2.08;;
34982;SDS011;21187;50.976;13.720;2023-11-19T16:31:21;18.27;;;2.35;;
34982;SDS011;21187;50.976;13.720;2023-11-19T16:36:24;11.15;;;2.58;;
34982;SDS011;21187;50.976;13.720;2023-11-19T16:41:26;8.93;;;2.35;;
34982;SDS011;21187;50.976;13.720;2023-11-19T16:46:42;12.45;;;2.30;;
34982;SDS011;21187;50.976;13.720;2023-11-19T16:51:45;17.33;;;2.85;;
34982;SDS011;21187;50.976;13.720;2023-11-19T16:56:48;17.70;;;2.40;;
34982;SDS011;21187;50.976;13.720;2023-11-19T17:01:50;16.23;;;2.30;;
34982;SDS011;21187;50.976;13.720;2023-11-19T17:06:52;11.02;;;2.42;;
34982;SDS011;21187;50.976;13.720;2023-11-19T17:11:54;17.17;;;2.22;;
34982;SDS011;21187;50.976;13.720;2023-11-19T17:16:57;10.57;;;1.45;;
34982;SDS011;21187;50.976;13.720;2023-11-19T17:21:59;13.73;;;2.03;;
34982;SDS011;21187;50.976;13.720;2023-11-19T17:27:01;15.48;;;2.17;;
34982;SDS011;21187;50.976;13.720;2023-11-19T17:32:03;12.27;;;2.00;;
34982;SDS011;21187;50.976;13.720;2023-11-19T17:37:06;19.52;;;2.58;;
34982;SDS011;21187;50.976;13.720;2023-11-19T17:42:08;7.05;;;2.08;;
34982;SDS011;21187;50.976;13.720;2023-11-19T17:47:11;13.20;;;2.45;;
34982;SDS011;21187;50.976;13.720;2023-11-19T17:52:14;8.18;;;1.98;;
34982;SDS011;21187;50.976;13.720;2023-11-19T17:57:16;13.38;;;2.33;;
34982;SDS011;21187;50.976;13.720;2023-11-19T18:02:18;9.68;;;1.85;;
34982;SDS011;21187;50.976;13.720;2023-11-19T18:07:20;10.73;;;2.15;;
34982;SDS011;21187;50.976;13.720;2023-11-19T18:12:23;9.85;;;1.92;;
34982;SDS011;21187;50.976;13.720;2023-11-19T18:17:25;11.85;;;2.17;;
34982;SDS011;21187;50.976;13.720;2023-11-19T18:22:27;15.88;;;2.05;;
34982;SDS011;21187;50.976;13.720;2023-11-19T18:27:29;10.50;;;2.05;;
34982;SDS011;21187;50.976;13.720;2023-11-19T18:32:31;12.68;;;2.35;;
34982;SDS011;21187;50.976;13.720;2023-11-19T18:37:33;15.15;;;2.85;;
34982;SDS011;21187;50.976;13.720;2023-11-19T18:42:37;9.25;;;2.10;;
34982;SDS011;21187;50.976;13.720;2023-11-19T18:47:40;12.68;;;2.83;;
34982;SDS011;21187;50.976;13.720;2023-11-19T18:52:42;16.00;;;2.30;;
34982;SDS011;21187;50.976;13.720;2023-11-19T18:57:46;13.23;;;2.25;;
34982;SDS011;21187;50.976;13.720;2023-11-19T19:02:48;19.15;;;2.00;;
34982;SDS011;21187;50.976;13.720;2023-11-19T19:07:55;7.00;;;2.50;;
34982;SDS011;21187;50.976;13.720;2023-11-19T19:12:58;16.15;;;2.17;;
34982;SDS011;21187;50.976;13.720;2023-11-19T19:18:00;16.95;;;2.45;;
34982;SDS011;21187;50.976;13.720;2023-11-19T19:23:02;11.88;;;2.17;;
34982;SDS011;21187;50.976;13.720;2023-11-19T19:28:04;14.57;;;3.95;;
34982;SDS011;21187;50.976;13.720;2023-11-19T19:33:14;12.43;;;3.15;;
34982;SDS011;21187;50.976;13.720;2023-11-19T19:38:16;11.13;;;2.22;;
34982;SDS011;21187;50.976;13.720;2023-11-19T19:43:18;9.02;;;2.60;;
34982;SDS011;21187;50.976;13.720;2023-11-19T19:48:20;12.00;;;1.88;;
34982;SDS011;21187;50.976;13.720;2023-11-19T19:53:23;12.85;;;1.80;;
34982;SDS011;21187;50.976;13.720;2023-11-19T19:58:25;8.38;;;1.75;;
34982;SDS011;21187;50.976;13.720;2023-11-19T20:03:27;16.85;;;2.33;;
34982;SDS011;21187;50.976;13.720;2023-11-19T20:08:29;12.68;;;1.95;;
34982;SDS011;21187;50.976;13.720;2023-11-19T20:13:31;17.88;;;2.22;;
34982;SDS011;21187;50.976;13.720;2023-11-19T20:18:33;12.20;;;1.63;;
34982;SDS011;21187;50.976;13.720;2023-11-19T20:23:35;11.05;;;1.70;;
34982;SDS011;21187;50.976;13.720;2023-11-19T20:28:37;14.00;;;2.00;;
34982;SDS011;21187;50.976;13.720;2023-11-19T20:33:39;18.10;;;2.47;;
34982;SDS011;21187;50.976;13.720;2023-11-19T20:38:41;13.05;;;1.80;;
34982;SDS011;21187;50.976;13.720;2023-11-19T20:43:44;12.20;;;1.60;;
34982;SDS011;21187;50.976;13.720;2023-11-19T20:48:46;11.25;;;1.80;;
34982;SDS011;21187;50.976;13.720;2023-11-19T20:53:49;9.48;;;2.00;;
34982;SDS011;21187;50.976;13.720;2023-11-19T20:58:52;7.32;;;1.67;;
34982;SDS011;21187;50.976;13.720;2023-11-19T21:03:55;9.57;;;2.17;;
34982;SDS011;21187;50.976;13.720;2023-11-19T21:08:57;5.78;;;1.55;;
34982;SDS011;21187;50.976;13.720;2023-11-19T21:13:59;12.35;;;1.70;;
34982;SDS011;21187;50.976;13.720;2023-11-19T21:19:01;6.13;;;1.38;;
34982;SDS011;21187;50.976;13.720;2023-11-19T21:24:03;14.63;;;1.90;;
34982;SDS011;21187;50.976;13.720;2023-11-19T21:29:05;12.80;;;1.83;;
34982;SDS011;21187;50.976;13.720;2023-11-19T21:34:07;8.50;;;1.40;;
34982;SDS011;21187;50.976;13.720;2023-11-19T21:39:09;9.13;;;1.65;;
34982;SDS011;21187;50.976;13.720;2023-11-19T21:44:13;8.18;;;1.58;;
34982;SDS011;21187;50.976;13.720;2023-11-19T21:49:15;7.82;;;1.20;;
34982;SDS011;21187;50.976;13.720;2023-11-19T21:54:17;7.57;;;1.55;;
34982;SDS011;21187;50.976;13.720;2023-11-19T21:59:20;13.00;;;1.45;;
34982;SDS011;21187;50.976;13.720;2023-11-19T22:04:22;16.85;;;1.70;;
34982;SDS011;21187;50.976;13.720;2023-11-19T22:09:24;10.13;;;1.60;;
34982;SDS011;21187;50.976;13.720;2023-11-19T22:14:26;11.38;;;1.33;;
34982;SDS011;21187;50.976;13.720;2023-11-19T22:19:28;11.60;;;1.60;;
34982;SDS011;21187;50.976;13.720;2023-11-19T22:24:29;5.63;;;2.15;;
34982;SDS011;21187;50.976;13.720;2023-11-19T22:29:32;10.00;;;1.92;;
34982;SDS011;21187;50.976;13.720;2023-11-19T22:34:34;13.20;;;1.80;;
34982;SDS011;21187;50.976;13.720;2023-11-19T22:39:36;11.65;;;1.88;;
34982;SDS011;21187;50.976;13.720;2023-11-19T22:44:38;14.98;;;1.73;;
34982;SDS011;21187;50.976;13.720;2023-11-19T22:49:41;8.88;;;1.45;;
34982;SDS011;21187;50.976;13.720;2023-11-19T22:54:42;8.65;;;1.60;;
34982;SDS011;21187;50.976;13.720;2023-11-19T22:59:44;11.70;;;2.13;;
34982;SDS011;21187;50.976;13.720;2023-11-19T23:04:46;16.50;;;2.00;;
34982;SDS011;21187;50.976;13.720;2023-11-19T23:09:48;12.05;;;1.77;;
34982;SDS011;21187;50.976;13.720;2023-11-19T23:14:50;17.92;;;2.65;;
34982;SDS011;21187;50.976;13.720;2023-11-19T23:19:52;12.50;;;2.10;;
34982;SDS011;21187;50.976;13.720;2023-11-19T23:25:00;7.75;;;1.80;;
34982;SDS011;21187;50.976;13.720;2023-11-19T23:30:02;6.13;;;1.42;;
34982;SDS011;21187;50.976;13.720;2023-11-19T23:35:04;9.20;;;1.67;;
34982;SDS011;21187;50.976;13.720;2023-11-19T23:40:10;14.65;;;2.35;;
34982;SDS011;21187;50.976;13.720;2023-11-19T23:45:14;6.20;;;1.50;;
34982;SDS011;21187;50.976;13.720;2023-11-19T23:50:17;16.98;;;1.92;;
34982;SDS011;21187;50.976;13.720;2023-11-19T23:55:19;20.77;;;1.92;;
